Terminal Aerodrome Forecast
Issued by NWS Billings, MT

Home | Current Version | Previous Version | Text Only | Print | Product List | Glossary On
Versions: 1 2 3 4 5 6 7 8 9 10 11 12 13 14 15 16 17 18 19 20 21 22 23
000
FTUS45 KBYZ 221739
TAFSHR
TAF
KSHR 221739Z 2218/2318 VRB05KT P6SM FEW100 SCT250
     FM230200 VRB05KT P6SM SCT060 BKN150
     FM230800 32012KT P6SM VCSH SCT040 BKN100
     FM231200 32012KT 3SM -RASN SCT012 OVC030=

USA.gov is the U.S. government's official web portal to all federal, state and local government web resources and services.